Portada
METAR-TAF:

METAR-TAF

Aeroports :

Munda, New Georgia, Illes Salomó

latitud: 8-19-41S, longitud: 157-15-47E, altitud: 3 m

Observació

L'informe es va fer fa 35 minuts, a les 04:00 UTC
Vent 5 kt del Est
Temperatura 30°C
Humitat 70%
Pressió 1008 hPa
Visibilitat 10 km o més
Escasses núvols a una alçada de 2000 ft
Núvols disperses a una alçada de 10000 ft

METAR: AGGM 200400Z 09005KT 9999 FEW020 SCT100 30/24 Q1008

Hora: 15:35 (04:35 UTC)

Pronòstic

L'informe es va fer fa 17 hores i 15 minuts, a les 11:20 UTC
Pronòstic vàlid del 19 a les 12 UTC al 20 a les 12 UTC
Vent 3 kt amb direcció variable
Visibilitat: 1011 m
Núvols disperses a una alçada de 1700 ft
Cel ennuvolat a una alçada de 10000 ft
Cel ennuvolat a una alçada de 1500 ft
Escasses núvols a una alçada de 1600 ft, Cumulonimbus.
xàfecs de pluja

TAF: AGGM 191120Z 1912/2012 VRB03KT 9999 -SHRA SCT017 BKN100 INTER 1912/1918 5000 TSSH BKN015 FEW016CB Q 1012 1010 1009 1011

Observacions i pronòstics meteorològics de més de 4000 aeroports (METAR i TAF).

Les estacions disponibles són els punts grocs i vermells al mapa.

Posi el ratolí al punt desitjat per veure el nom de l'estació.

Feu clic per veure les observacions i els pronòstics meteorològics.

Per canviar el mapa: feu clic els botons verds amb una creu de color negre per apropar; al botó verd amb un guió per allunyar la imatge; o en les fletxes verdes per a mapes adjacents.


METAR-TAF: